Time;durP1;ratioP1;P1;durP2;ratioP2;P2;SDS_P1;SDS_P2;PMS_P1;PMS_P2;Temp;Humidity;BMP_temperature;BMP_pressure;BME280_temperature;BME280_humidity;BME280_pressure;Samples;Min_cycle;Max_cycle;Signal;HPM_P1;HPM_P2
2022/05/14 00:00:46;;;;;;;;;;;;;;;12.46;48.19;100637.88;109277;1265;22018;-76
2022/05/14 00:03:16;;;;;;;;;;;;;;;12.42;48.33;100640.65;109297;1265;21973;-76
2022/05/14 00:05:45;;;;;;;;;;;;;;;12.38;48.41;100640.67;109704;1261;21954;-75
2022/05/14 00:08:17;;;;;;;;;;;;;;;12.35;48.62;100644.25;109849;1258;23689;-76
2022/05/14 00:13:39;;;;;;;;;;;;;;;12.30;48.99;100642.35;110229;1253;23038;-76
2022/05/14 00:16:09;;;;;;;;;;;;;;;12.27;49.04;100641.52;110652;1253;23645;-75
2022/05/14 00:18:38;;;;;;;;;;;;;;;12.24;49.10;100637.64;110598;1254;23744;-74
2022/05/14 00:21:07;;;;;;;;;;;;;;;12.22;49.04;100639.43;110560;1253;23042;-76
2022/05/14 00:23:36;;;;;;;;;;;;;;;12.20;49.15;100638.12;110522;1253;23030;-76
2022/05/14 00:26:05;;;;;;;;;;;;;;;12.19;49.26;100639.67;110506;1253;21938;-75
2022/05/14 00:28:35;;;;;;;;;;;;;;;12.17;49.37;100641.61;110543;1254;23572;-75
2022/05/14 00:31:04;;;;;;;;;;;;;;;12.16;49.49;100641.38;110034;1259;24312;-76
2022/05/14 00:33:33;;;;;;;;;;;;;;;12.14;49.43;100640.23;110199;1258;23613;-76
2022/05/14 00:36:04;;;;;;;;;;;;;;;12.10;49.38;100644.30;109923;1259;23598;-76
2022/05/14 00:38:33;;;;;;;;;;;;;;;12.06;49.56;100646.54;109862;1262;21958;-77
2022/05/14 00:41:05;;;;;;;;;;;;;;;12.01;49.60;100646.72;109641;1262;21966;-75
2022/05/14 00:43:50;;;;;;;;;;;;;;;11.98;49.93;100645.34;109046;1268;23103;-76
2022/05/14 00:46:28;;;;;;;;;;;;;;;11.95;50.09;100645.71;108923;1270;22097;-76
2022/05/14 00:48:58;;;;;;;;;;;;;;;11.92;50.16;100645.45;109325;1264;21959;-76
2022/05/14 00:51:35;;;;;;;;;;;;;;;11.90;50.26;100641.42;109286;1264;23666;-75
2022/05/14 00:54:12;;;;;;;;;;;;;;;11.89;50.40;100640.81;109584;1264;21966;-75
2022/05/14 00:56:47;;;;;;;;;;;;;;;11.88;50.44;100639.21;109086;1265;21977;-75
2022/05/14 00:59:19;;;;;;;;;;;;;;;11.87;50.47;100640.54;109298;1266;22029;-75
2022/05/14 01:01:48;;;;;;;;;;;;;;;11.86;50.59;100638.78;109277;1265;23663;-77
2022/05/14 01:04:19;;;;;;;;;;;;;;;11.83;50.56;100637.66;109242;1266;21968;-76
2022/05/14 01:07:11;;;;;;;;;;;;;;;11.79;50.77;100636.45;109228;1264;21979;-75
2022/05/14 01:09:45;;;;;;;;;;;;;;;11.74;50.77;100634.35;110131;1259;22060;-76
2022/05/14 01:12:16;;;;;;;;;;;;;;;11.68;50.93;100627.23;109982;1258;22926;-77
2022/05/14 01:14:45;;;;;;;;;;;;;;;11.64;51.14;100629.40;109948;1254;21956;-74
2022/05/14 01:17:14;;;;;;;;;;;;;;;11.60;51.30;100626.40;110523;1254;22003;-75
2022/05/14 01:19:43;;;;;;;;;;;;;;;11.58;51.58;100627.69;110553;1253;22417;-75
2022/05/14 01:22:50;;;;;;;;;;;;;;;11.57;51.77;100626.00;110659;1253;22008;-75
2022/05/14 01:28:38;;;;;;;;;;;;;;;11.56;51.92;100631.52;109197;1267;23573;-76
2022/05/14 01:31:07;;;;;;;;;;;;;;;11.56;52.09;100635.91;108748;1273;23689;-76
2022/05/14 01:33:36;;;;;;;;;;;;;;;11.59;52.14;100631.81;108773;1271;24322;-76
2022/05/14 01:36:08;;;;;;;;;;;;;;;11.62;52.38;100630.19;108377;1276;22139;-77
2022/05/14 01:38:37;;;;;;;;;;;;;;;11.67;52.54;100628.79;108453;1276;22443;-75
2022/05/14 01:41:06;;;;;;;;;;;;;;;11.71;52.58;100626.02;108086;1282;23802;-76
2022/05/14 01:43:36;;;;;;;;;;;;;;;11.75;52.50;100624.33;108205;1276;22042;-75
2022/05/14 01:46:06;;;;;;;;;;;;;;;11.80;52.35;100622.98;108382;1277;22048;-75
2022/05/14 01:48:49;;;;;;;;;;;;;;;11.83;52.37;100617.46;107931;1279;22008;-76
2022/05/14 01:51:19;;;;;;;;;;;;;;;11.88;52.27;100615.78;108372;1279;21980;-75
2022/05/14 01:53:50;;;;;;;;;;;;;;;11.91;52.21;100621.36;108271;1276;23641;-75
2022/05/14 01:56:19;;;;;;;;;;;;;;;11.95;52.11;100621.85;108681;1273;23684;-75
2022/05/14 01:58:49;;;;;;;;;;;;;;;11.98;52.14;100624.62;108534;1270;23664;-76
2022/05/14 02:01:26;;;;;;;;;;;;;;;12.03;52.09;100621.86;108848;1270;21987;-75
2022/05/14 02:03:58;;;;;;;;;;;;;;;12.06;51.93;100617.60;109317;1259;23783;-74
2022/05/14 02:06:29;;;;;;;;;;;;;;;12.09;51.93;100616.90;109691;1260;21968;-75
2022/05/14 02:09:00;;;;;;;;;;;;;;;12.12;51.91;100617.42;109697;1260;22020;-75
2022/05/14 02:11:30;;;;;;;;;;;;;;;12.16;51.86;100618.80;109523;1264;21983;-75
2022/05/14 02:14:11;;;;;;;;;;;;;;;12.19;51.92;100622.83;109684;1259;21948;-75
2022/05/14 02:16:40;;;;;;;;;;;;;;;12.23;51.91;100624.13;109173;1267;23592;-76
2022/05/14 02:19:10;;;;;;;;;;;;;;;12.27;51.55;100620.09;109225;1267;22730;-76
2022/05/14 02:21:40;;;;;;;;;;;;;;;12.28;51.53;100613.52;109180;1267;22440;-75
2022/05/14 02:24:09;;;;;;;;;;;;;;;12.31;51.60;100613.94;109205;1267;21962;-75
2022/05/14 02:26:38;;;;;;;;;;;;;;;12.33;51.48;100618.63;109239;1267;22211;-76
2022/05/14 02:29:08;;;;;;;;;;;;;;;12.36;51.52;100618.89;109118;1260;23642;-76
2022/05/14 02:31:38;;;;;;;;;;;;;;;12.36;51.35;100614.58;109345;1267;21934;-76
2022/05/14 02:34:07;;;;;;;;;;;;;;;12.37;51.31;100616.84;109320;1260;21963;-75
2022/05/14 02:36:36;;;;;;;;;;;;;;;12.37;51.32;100616.83;110029;1259;21956;-76
2022/05/14 02:39:06;;;;;;;;;;;;;;;12.37;51.20;100612.73;110150;1257;23377;-77
2022/05/14 02:41:35;;;;;;;;;;;;;;;12.37;51.21;100610.80;110044;1258;21947;-76
2022/05/14 02:44:04;;;;;;;;;;;;;;;12.35;51.10;100613.16;109838;1259;23571;-75
2022/05/14 02:46:33;;;;;;;;;;;;;;;12.33;51.08;100611.94;110212;1259;23059;-76
2022/05/14 02:49:03;;;;;;;;;;;;;;;12.31;51.17;100614.84;110186;1254;23664;-76
2022/05/14 02:51:32;;;;;;;;;;;;;;;12.29;51.16;100612.71;110606;1255;23039;-76
2022/05/14 02:54:01;;;;;;;;;;;;;;;12.25;50.99;100612.84;110573;1254;21957;-75
2022/05/14 02:56:30;;;;;;;;;;;;;;;12.22;51.25;100619.37;110549;1253;22028;-76
2022/05/14 02:59:08;;;;;;;;;;;;;;;12.19;51.38;100620.30;110010;1259;23683;-76
2022/05/14 03:01:47;;;;;;;;;;;;;;;12.17;51.54;100615.65;110047;1259;22084;-76
2022/05/14 03:04:27;;;;;;;;;;;;;;;12.15;51.46;100614.50;110055;1259;23068;-76
2022/05/14 03:06:58;;;;;;;;;;;;;;;12.13;51.63;100613.12;110083;1260;21944;-76
2022/05/14 03:09:28;;;;;;;;;;;;;;;12.12;51.76;100613.87;109165;1267;22919;-76
2022/05/14 03:11:58;;;;;;;;;;;;;;;12.12;51.75;100616.42;109338;1264;21988;-75
2022/05/14 03:14:28;;;;;;;;;;;;;;;12.10;51.78;100613.83;109350;1264;21992;-76
2022/05/14 03:16:57;;;;;;;;;;;;;;;12.08;51.83;100615.62;109605;1259;23583;-76
2022/05/14 03:19:26;;;;;;;;;;;;;;;12.08;51.98;100615.82;110184;1259;21958;-75
2022/05/14 03:21:56;;;;;;;;;;;;;;;12.08;52.11;100612.97;110144;1258;22022;-74
2022/05/14 03:24:26;;;;;;;;;;;;;;;12.08;52.06;100613.82;109425;1264;23759;-75
2022/05/14 03:26:54;;;;;;;;;;;;;;;12.08;52.02;100609.99;109284;1260;22308;-75
2022/05/14 03:29:24;;;;;;;;;;;;;;;12.08;52.01;100609.17;110060;1260;21967;-76
2022/05/14 03:31:55;;;;;;;;;;;;;;;12.08;52.03;100609.86;110041;1260;21965;-74
2022/05/14 03:34:25;;;;;;;;;;;;;;;12.10;52.22;100610.66;109829;1261;23800;-74
2022/05/14 03:36:55;;;;;;;;;;;;;;;12.12;52.39;100607.95;109477;1263;21994;-75
2022/05/14 03:39:24;;;;;;;;;;;;;;;12.14;52.30;100608.21;109622;1260;21986;-76
2022/05/14 03:41:53;;;;;;;;;;;;;;;12.16;52.23;100610.48;109497;1260;22078;-76
2022/05/14 03:44:22;;;;;;;;;;;;;;;12.17;52.23;100611.98;110196;1259;21991;-76
2022/05/14 03:46:51;;;;;;;;;;;;;;;12.19;52.23;100614.51;110035;1259;21950;-76
2022/05/14 03:49:20;;;;;;;;;;;;;;;12.22;52.40;100610.70;110175;1259;22012;-75
2022/05/14 03:51:50;;;;;;;;;;;;;;;12.24;52.35;100605.98;110004;1259;22529;-76
2022/05/14 03:54:20;;;;;;;;;;;;;;;12.24;51.95;100605.36;109313;1265;21955;-76
2022/05/14 03:56:49;;;;;;;;;;;;;;;12.24;52.01;100605.04;109502;1262;21961;-76
2022/05/14 03:59:18;;;;;;;;;;;;;;;12.26;52.21;100603.50;109442;1263;22557;-75
2022/05/14 04:01:47;;;;;;;;;;;;;;;12.32;52.34;100604.00;109681;1262;22943;-76
2022/05/14 04:04:16;;;;;;;;;;;;;;;12.35;52.24;100603.73;110227;1259;22807;-76
2022/05/14 04:06:45;;;;;;;;;;;;;;;12.38;52.27;100602.54;110134;1260;21968;-76
2022/05/14 04:09:15;;;;;;;;;;;;;;;12.42;52.15;100603.52;110181;1259;23062;-77
2022/05/14 04:11:44;;;;;;;;;;;;;;;12.46;52.17;100601.21;110176;1254;23120;-77
2022/05/14 04:14:13;;;;;;;;;;;;;;;12.51;52.06;100603.40;110513;1254;23143;-75
2022/05/14 04:16:42;;;;;;;;;;;;;;;12.55;52.10;100597.09;110489;1254;23070;-76
2022/05/14 04:19:11;;;;;;;;;;;;;;;12.64;52.26;100601.22;110033;1257;23594;-76
2022/05/14 04:21:40;;;;;;;;;;;;;;;12.73;52.04;100607.09;110135;1259;23551;-77
2022/05/14 04:24:14;;;;;;;;;;;;;;;12.80;51.81;100604.81;110335;1258;21948;-77
2022/05/14 04:26:46;;;;;;;;;;;;;;;12.86;51.63;100601.09;109684;1261;22014;-76
2022/05/14 04:29:21;;;;;;;;;;;;;;;12.92;51.18;100602.18;109443;1264;22105;-75
2022/05/14 04:31:53;;;;;;;;;;;;;;;12.99;51.14;100599.65;109588;1264;23668;-76
2022/05/14 04:34:22;;;;;;;;;;;;;;;13.06;51.03;100602.41;109742;1265;21966;-76
2022/05/14 04:36:52;;;;;;;;;;;;;;;13.14;51.05;100601.91;109056;1264;22079;-75
2022/05/14 04:39:31;;;;;;;;;;;;;;;13.26;51.18;100603.36;109356;1265;23699;-76
2022/05/14 04:42:05;;;;;;;;;;;;;;;13.41;51.14;100602.88;109397;1262;21973;-75
2022/05/14 04:44:37;;;;;;;;;;;;;;;13.52;50.75;100599.52;109004;1270;23087;-76
2022/05/14 04:47:06;;;;;;;;;;;;;;;13.60;50.60;100599.53;109186;1264;21979;-77
2022/05/14 04:49:44;;;;;;;;;;;;;;;13.71;50.41;100597.98;108900;1268;21972;-75
2022/05/14 04:52:14;;;;;;;;;;;;;;;13.78;50.20;100601.95;108858;1267;23092;-75
2022/05/14 04:54:43;;;;;;;;;;;;;;;13.83;49.87;100603.48;109312;1265;23030;-75
2022/05/14 04:57:15;;;;;;;;;;;;;;;13.85;49.66;100604.42;109062;1270;22115;-75
2022/05/14 04:59:48;;;;;;;;;;;;;;;13.84;49.56;100605.84;108932;1270;21971;-75
2022/05/14 05:05:08;;;;;;;;;;;;;;;13.86;49.89;100605.38;109197;1267;23088;-76
2022/05/14 05:07:38;;;;;;;;;;;;;;;13.90;49.82;100605.02;109425;1261;24176;-74
2022/05/14 05:10:28;;;;;;;;;;;;;;;13.96;49.97;100603.54;109723;1261;23046;-75
2022/05/14 05:12:58;;;;;;;;;;;;;;;14.02;50.09;100597.43;109865;1261;21971;-74
2022/05/14 05:15:27;;;;;;;;;;;;;;;14.08;49.86;100595.42;110006;1256;21950;-74
2022/05/14 05:17:58;;;;;;;;;;;;;;;14.22;50.34;100593.83;110462;1254;21967;-75
2022/05/14 05:20:28;;;;;;;;;;;;;;;14.46;50.48;100597.08;110469;1254;21987;-75
2022/05/14 05:22:57;;;;;;;;;;;;;;;14.75;50.42;100601.01;109989;1260;23065;-75
2022/05/14 05:25:27;;;;;;;;;;;;;;;15.05;50.09;100596.95;110026;1260;22403;-76
2022/05/14 05:27:57;;;;;;;;;;;;;;;15.31;49.69;100603.94;109864;1260;21960;-75
2022/05/14 05:30:26;;;;;;;;;;;;;;;15.60;49.30;100604.71;110130;1258;21950;-75
2022/05/14 05:32:58;;;;;;;;;;;;;;;15.90;48.75;100610.20;109989;1260;23070;-75
2022/05/14 05:35:44;;;;;;;;;;;;;;;;;;;;;
2022/05/14 05:39:10;;;;;;;;;;;;;;;16.17;46.65;100607.95;109710;1262;21962;-76
2022/05/14 05:42:41;;;;;;;;;;;;;;;16.12;46.10;100601.53;109879;1263;23747;-75
2022/05/14 05:46:09;;;;;;;;;;;;;;;16.05;45.83;100602.94;109649;1262;23657;-76
2022/05/14 05:49:40;;;;;;;;;;;;;;;16.06;46.65;100606.92;109946;1260;21969;-75
2022/05/14 05:52:11;;;;;;;;;;;;;;;16.21;47.01;100615.11;109744;1261;21956;-76
2022/05/14 05:57:37;;;;;;;;;;;;;;;16.27;46.04;100616.05;110088;1259;23055;-75
2022/05/14 06:00:32;;;;;;;;;;;;;;;16.21;45.91;100610.58;109940;1259;21945;-76
2022/05/14 06:06:03;;;;;;;;;;;;;;;16.12;45.92;100611.62;110106;1257;22013;-76
2022/05/14 06:08:34;;;;;;;;;;;;;;;16.17;47.05;100608.12;110129;1257;22754;-75
2022/05/14 06:11:03;;;;;;;;;;;;;;;16.55;48.34;100609.79;110185;1257;23131;-75
2022/05/14 06:13:39;;;;;;;;;;;;;;;17.04;48.18;100609.54;110264;1254;23062;-78
2022/05/14 06:16:10;;;;;;;;;;;;;;;17.49;46.96;100605.48;110396;1254;21956;-78
2022/05/14 06:18:47;;;;;;;;;;;;;;;17.94;46.23;100603.82;110498;1254;25015;-76
2022/05/14 06:21:16;;;;;;;;;;;;;;;18.39;45.04;100599.84;110134;1258;23043;-76
2022/05/14 06:23:49;;;;;;;;;;;;;;;18.60;43.32;100600.77;110212;1260;23445;-77
2022/05/14 06:26:24;;;;;;;;;;;;;;;18.60;42.12;100600.39;110174;1257;21956;-78
2022/05/14 06:28:53;;;;;;;;;;;;;;;18.63;42.37;100602.17;109679;1263;21973;-80
2022/05/14 06:31:22;;;;;;;;;;;;;;;18.71;42.42;100598.89;109113;1267;22739;-78
2022/05/14 06:34:05;;;;;;;;;;;;;;;;;;;;;
2022/05/14 06:36:47;;;;;;;;;;;;;;;19.30;42.71;100608.67;109000;1270;21975;-78
2022/05/14 06:39:19;;;;;;;;;;;;;;;19.67;42.38;100602.26;109031;1268;21956;-78
2022/05/14 06:41:49;;;;;;;;;;;;;;;20.05;41.77;100603.25;109222;1267;22348;-78
2022/05/14 06:44:22;;;;;;;;;;;;;;;20.41;40.99;100602.00;108991;1269;21960;-78
2022/05/14 06:46:51;;;;;;;;;;;;;;;20.69;40.18;100598.85;108999;1267;22044;-77
2022/05/14 06:49:21;;;;;;;;;;;;;;;20.88;39.34;100604.23;109560;1260;22876;-77
2022/05/14 06:51:58;;;;;;;;;;;;;;;21.02;39.02;100605.66;109493;1263;22005;-79
2022/05/14 06:54:32;;;;;;;;;;;;;;;21.26;39.00;100604.11;110261;1258;21981;-78
2022/05/14 06:57:02;;;;;;;;;;;;;;;21.54;38.46;100600.33;109689;1263;22009;-77
2022/05/14 06:59:33;;;;;;;;;;;;;;;21.74;38.06;100601.48;109609;1263;22959;-78
2022/05/14 07:02:04;;;;;;;;;;;;;;;21.87;37.47;100607.13;109431;1263;21972;-77
2022/05/14 07:07:22;;;;;;;;;;;;;;;22.17;37.49;100599.60;109676;1263;23693;-78
2022/05/14 07:09:54;;;;;;;;;;;;;;;22.34;36.90;100600.88;109289;1262;22002;-78
2022/05/14 07:12:26;;;;;;;;;;;;;;;22.61;37.03;100600.95;109748;1263;23136;-77
2022/05/14 07:14:56;;;;;;;;;;;;;;;22.91;36.37;100598.41;109590;1263;22090;-80
2022/05/14 07:17:27;;;;;;;;;;;;;;;23.03;35.22;100600.89;108963;1266;23321;-79
2022/05/14 07:20:00;;;;;;;;;;;;;;;22.95;34.55;100603.39;109142;1267;23747;-75
2022/05/14 07:22:48;;;;;;;;;;;;;;;22.75;34.50;100603.73;109598;1263;23106;-77
2022/05/14 07:25:19;;;;;;;;;;;;;;;22.61;34.81;100602.66;109592;1263;21952;-78
2022/05/14 07:27:51;;;;;;;;;;;;;;;22.44;34.96;100600.08;109866;1258;21953;-76
2022/05/14 07:30:24;;;;;;;;;;;;;;;22.39;35.60;100599.81;109985;1257;23612;-78
2022/05/14 07:32:54;;;;;;;;;;;;;;;22.47;35.84;100598.95;109812;1257;23655;-78
2022/05/14 07:35:25;;;;;;;;;;;;;;;22.62;35.93;100597.20;109734;1260;23564;-79
2022/05/14 07:38:06;;;;;;;;;;;;;;;22.85;35.72;100595.23;109779;1258;22733;-76
2022/05/14 07:40:37;;;;;;;;;;;;;;;23.11;35.29;100599.68;109788;1260;23633;-79
2022/05/14 07:43:20;;;;;;;;;;;;;;;23.34;35.16;100597.34;109670;1263;22025;-78
2022/05/14 07:45:53;;;;;;;;;;;;;;;23.68;35.17;100593.16;109249;1265;23641;-78
2022/05/14 07:48:27;;;;;;;;;;;;;;;24.07;34.68;100590.76;109126;1267;21959;-80
2022/05/14 07:51:00;;;;;;;;;;;;;;;24.37;33.68;100588.80;108942;1271;22389;-78
2022/05/14 07:53:32;;;;;;;;;;;;;;;24.54;32.94;100588.36;108867;1267;21932;-80
2022/05/14 07:56:03;;;;;;;;;;;;;;;24.35;31.97;100588.94;108986;1267;22027;-78
2022/05/14 07:58:33;;;;;;;;;;;;;;;24.07;32.43;100587.52;109109;1267;22925;-79
2022/05/14 08:01:02;;;;;;;;;;;;;;;23.98;32.61;100590.40;109243;1261;21964;-80
2022/05/14 08:03:32;;;;;;;;;;;;;;;23.85;32.25;100589.09;109794;1263;22253;-78
2022/05/14 08:06:02;;;;;;;;;;;;;;;23.79;32.38;100589.77;109881;1257;21953;-79
2022/05/14 08:08:37;;;;;;;;;;;;;;;23.65;31.98;100585.29;110410;1251;21990;-78
2022/05/14 08:11:06;;;;;;;;;;;;;;;23.33;31.68;100592.48;110613;1251;21962;-78
2022/05/14 08:13:36;;;;;;;;;;;;;;;22.83;31.54;100587.06;110694;1251;21957;-78
2022/05/14 08:16:05;;;;;;;;;;;;;;;22.29;31.96;100585.69;110628;1251;22994;-78
2022/05/14 08:18:35;;;;;;;;;;;;;;;21.74;32.49;100588.67;110581;1254;21958;-78
2022/05/14 08:26:39;;;;;;;;;;;;;;;20.46;34.92;100591.85;110751;1251;23146;-78
2022/05/14 08:29:08;;;;;;;;;;;;;;;20.30;35.79;100596.53;110611;1251;21949;-78
2022/05/14 08:31:37;;;;;;;;;;;;;;;20.17;36.39;100596.06;110923;1251;23689;-77
2022/05/14 08:34:06;;;;;;;;;;;;;;;20.09;36.69;100593.05;110424;1251;21960;-78
2022/05/14 08:36:35;;;;;;;;;;;;;;;20.00;36.75;100592.13;110604;1254;21951;-77
2022/05/14 08:39:05;;;;;;;;;;;;;;;19.80;36.86;100591.13;110594;1254;21940;-77
2022/05/14 08:41:36;;;;;;;;;;;;;;;19.67;37.60;100600.27;110196;1254;372271;-78
2022/05/14 08:44:14;;;;;;;;;;;;;;;19.74;38.67;100596.91;110729;1254;23589;-79
2022/05/14 08:46:44;;;;;;;;;;;;;;;20.19;39.02;100601.82;110571;1254;23582;-78
2022/05/14 08:49:17;;;;;;;;;;;;;;;20.44;37.37;100607.55;110702;1253;22973;-79
2022/05/14 08:51:50;;;;;;;;;;;;;;;20.39;36.54;100606.97;110255;1255;22079;-78
2022/05/14 08:54:25;;;;;;;;;;;;;;;20.28;36.50;100602.91;110021;1260;21954;-77
2022/05/14 08:57:24;;;;;;;;;;;;;;;20.16;36.97;100603.99;110275;1258;23671;-77
2022/05/14 08:59:59;;;;;;;;;;;;;;;20.24;37.62;100604.85;110395;1260;21965;-78
2022/05/14 09:02:50;;;;;;;;;;;;;;;20.49;37.85;100602.77;110012;1260;21967;-77
2022/05/14 09:05:27;;;;;;;;;;;;;;;20.68;36.99;100603.71;110142;1260;22050;-77
2022/05/14 09:07:57;;;;;;;;;;;;;;;20.81;36.73;100607.38;110195;1260;22020;-78
2022/05/14 09:10:32;;;;;;;;;;;;;;;20.73;35.97;100607.77;109910;1259;23033;-77
2022/05/14 09:13:09;;;;;;;;;;;;;;;20.50;36.51;100606.21;110190;1256;23571;-78
2022/05/14 09:15:46;;;;;;;;;;;;;;;20.69;37.47;100610.98;110641;1254;22433;-79
2022/05/14 09:18:27;;;;;;;;;;;;;;;20.85;36.43;100609.43;110723;1253;23652;-77
2022/05/14 09:21:06;;;;;;;;;;;;;;;20.73;35.57;100613.08;110525;1254;21947;-77
2022/05/14 09:23:39;;;;;;;;;;;;;;;20.42;35.76;100610.95;110622;1253;21940;-79
2022/05/14 09:26:18;;;;;;;;;;;;;;;20.20;36.30;100611.70;110670;1253;23587;-79
2022/05/14 09:28:57;;;;;;;;;;;;;;;19.97;36.41;100613.41;110625;1254;22213;-78
2022/05/14 09:31:36;;;;;;;;;;;;;;;19.72;36.55;100615.98;110603;1254;21976;-78
2022/05/14 09:34:13;;;;;;;;;;;;;;;19.52;36.89;100615.12;110576;1254;22435;-78
2022/05/14 09:36:45;;;;;;;;;;;;;;;19.34;37.22;100612.30;110777;1251;21964;-77
2022/05/14 09:39:20;;;;;;;;;;;;;;;19.22;37.47;100614.42;110094;1257;21956;-77
2022/05/14 09:41:54;;;;;;;;;;;;;;;19.12;37.64;100628.18;109279;1267;21970;-78
2022/05/14 09:44:27;;;;;;;;;;;;;;;18.97;37.67;100627.45;108786;1273;22467;-78
2022/05/14 09:47:14;;;;;;;;;;;;;;;19.03;38.97;100621.89;108926;1270;22029;-77
2022/05/14 09:49:55;;;;;;;;;;;;;;;19.40;38.70;100617.27;108891;1270;23069;-77
2022/05/14 09:52:26;;;;;;;;;;;;;;;19.52;37.78;100617.42;108838;1270;23677;-78
2022/05/14 09:54:56;;;;;;;;;;;;;;;19.49;37.40;100621.08;108868;1270;22044;-77
2022/05/14 09:57:57;;;;;;;;;;;;;;;19.37;37.33;100626.54;109039;1264;21965;-78
2022/05/14 10:00:36;;;;;;;;;;;;;;;19.12;36.95;100626.15;109237;1263;24183;-78
2022/05/14 10:03:33;;;;;;;;;;;;;;;18.91;37.14;100625.02;109268;1265;21971;-79
2022/05/14 10:06:22;;;;;;;;;;;;;;;18.84;37.84;100621.24;109711;1257;23632;-77
2022/05/14 10:08:52;;;;;;;;;;;;;;;19.16;38.52;100613.52;109959;1258;21987;-78
2022/05/14 10:11:30;;;;;;;;;;;;;;;19.49;37.62;100613.09;110395;1257;23072;-78
2022/05/14 10:14:25;;;;;;;;;;;;;;;19.80;37.01;100605.88;110327;1257;21985;-78
2022/05/14 10:17:13;;;;;;;;;;;;;;;20.30;36.61;100596.48;110267;1257;21979;-79
2022/05/14 10:20:21;;;;;;;;;;;;;;;20.86;35.39;100599.94;110355;1257;21950;-78
2022/05/14 10:26:45;;;;;;;;;;;;;;;20.97;32.80;100606.44;110333;1254;22974;-78
2022/05/14 10:29:24;;;;;;;;;;;;;;;20.68;32.59;100607.03;110770;1254;21988;-78
2022/05/14 10:32:05;;;;;;;;;;;;;;;20.45;32.80;100608.98;110845;1253;24370;-78
2022/05/14 10:34:40;;;;;;;;;;;;;;;20.28;33.05;100608.45;110675;1254;23123;-78
2022/05/14 10:37:33;;;;;;;;;;;;;;;20.18;33.46;100605.66;110692;1251;23139;-78
2022/05/14 10:40:30;;;;;;;;;;;;;;;20.07;33.40;100610.91;110303;1257;22087;-78
2022/05/14 10:43:16;;;;;;;;;;;;;;;19.89;33.70;100603.02;110346;1257;22824;-77
2022/05/14 10:45:48;;;;;;;;;;;;;;;19.84;34.20;100606.25;110418;1257;23658;-81
2022/05/14 10:48:42;;;;;;;;;;;;;;;19.88;34.27;100599.83;109559;1263;22785;-81
2022/05/14 10:51:21;;;;;;;;;;;;;;;19.96;34.61;100597.82;109539;1263;24280;-78
2022/05/14 10:53:52;;;;;;;;;;;;;;;20.06;34.36;100595.74;109371;1263;22882;-78
2022/05/14 10:56:38;;;;;;;;;;;;;;;19.99;33.78;100595.33;109521;1263;21978;-78
2022/05/14 10:59:37;;;;;;;;;;;;;;;19.87;33.87;100588.61;110173;1257;22033;-78
2022/05/14 11:02:25;;;;;;;;;;;;;;;19.78;33.96;100586.23;110303;1258;22477;-78
2022/05/14 11:04:55;;;;;;;;;;;;;;;19.75;34.10;100591.99;110226;1258;22776;-81
2022/05/14 11:07:45;;;;;;;;;;;;;;;19.73;34.02;100595.70;110342;1258;21956;-77
2022/05/14 11:10:31;;;;;;;;;;;;;;;19.70;34.45;100590.48;110336;1257;22020;-79
2022/05/14 11:13:12;;;;;;;;;;;;;;;19.75;34.62;100584.77;110462;1251;23578;-78
2022/05/14 11:15:42;;;;;;;;;;;;;;;19.85;34.67;100587.73;110725;1251;22417;-78
2022/05/14 11:18:17;;;;;;;;;;;;;;;19.93;34.37;100590.93;110568;1251;21957;-77
2022/05/14 11:21:03;;;;;;;;;;;;;;;19.96;34.14;100593.86;110779;1251;23571;-77
2022/05/14 11:24:02;;;;;;;;;;;;;;;19.93;33.72;100595.77;110645;1251;22016;-78
2022/05/14 11:26:42;;;;;;;;;;;;;;;19.78;33.68;100589.58;110532;1251;23577;-78
2022/05/14 11:29:15;;;;;;;;;;;;;;;19.73;33.83;100592.30;110587;1251;21957;-77
2022/05/14 11:32:02;;;;;;;;;;;;;;;19.73;33.86;100593.02;110212;1257;24265;-78
2022/05/14 11:35:12;;;;;;;;;;;;;;;19.81;34.08;100590.73;110261;1257;21954;-82
2022/05/14 11:39:11;;;;;;;;;;;;;;;20.07;34.16;100599.92;110469;1259;22089;-80
2022/05/14 11:43:25;;;;;;;;;;;;;;;20.34;33.50;100598.15;110329;1259;22252;-79
2022/05/14 11:46:28;;;;;;;;;;;;;;;20.44;33.38;100599.60;109484;1264;23027;-83
2022/05/14 11:52:59;;;;;;;;;;;;;;;20.39;33.14;100600.81;108883;1272;21966;-82
2022/05/14 12:00:28;;;;;;;;;;;;;;;20.36;33.02;100601.44;108745;1279;22007;-79
2022/05/14 12:04:10;;;;;;;;;;;;;;;20.35;33.18;100604.55;108835;1276;21991;-79
2022/05/14 12:06:55;;;;;;;;;;;;;;;20.29;33.01;100608.34;108691;1282;23694;-82
2022/05/14 12:09:43;;;;;;;;;;;;;;;20.19;33.07;100605.94;108315;1282;22874;-81
2022/05/14 12:12:18;;;;;;;;;;;;;;;20.19;33.36;100604.17;108595;1278;22052;-81
2022/05/14 12:15:12;;;;;;;;;;;;;;;20.29;33.55;100601.98;108739;1276;22986;-81
2022/05/14 12:18:01;;;;;;;;;;;;;;;20.37;33.26;100608.69;108822;1276;22042;-78
2022/05/14 12:20:55;;;;;;;;;;;;;;;20.27;33.00;100611.33;108348;1280;23591;-83
2022/05/14 12:23:51;;;;;;;;;;;;;;;20.13;33.04;100608.36;108695;1270;22005;-81
2022/05/14 12:26:48;;;;;;;;;;;;;;;19.99;33.24;100605.85;108707;1273;22825;-78
2022/05/14 12:30:00;;;;;;;;;;;;;;;19.93;33.45;100609.41;108877;1273;22739;-78
2022/05/14 12:35:32;;;;;;;;;;;;;;;20.02;33.85;100608.87;107937;1279;22008;-77
2022/05/14 12:38:03;;;;;;;;;;;;;;;20.06;33.61;100608.05;108066;1279;21976;-78
2022/05/14 12:40:33;;;;;;;;;;;;;;;20.04;33.50;100604.92;108059;1279;21996;-78
2022/05/14 12:43:20;;;;;;;;;;;;;;;19.99;33.52;100603.86;108582;1273;23822;-80
2022/05/14 12:46:09;;;;;;;;;;;;;;;19.95;33.72;100599.37;108643;1275;21970;-77
2022/05/14 12:49:05;;;;;;;;;;;;;;;19.92;33.70;100602.04;108528;1271;22027;-77
2022/05/14 12:51:31;;;;;;;;;;;;;;;19.90;33.88;100601.30;108433;1273;22124;-77
2022/05/14 12:53:58;;;;;;;;;;;;;;;19.87;33.84;100606.27;108594;1276;23725;-78
2022/05/14 12:56:33;;;;;;;;;;;;;;;19.95;34.11;100609.81;109057;1267;21963;-77
2022/05/14 12:59:04;;;;;;;;;;;;;;;20.05;33.89;100609.89;108970;1267;22378;-79
2022/05/14 13:01:37;;;;;;;;;;;;;;;20.10;33.65;100604.44;109013;1265;21968;-78
2022/05/14 13:07:51;;;;;;;;;;;;;;;20.09;33.39;100600.33;109400;1267;21981;-80
2022/05/14 13:11:15;;;;;;;;;;;;;;;;;;;;;
2022/05/14 13:14:34;;;;;;;;;;;;;;;20.01;33.53;100599.56;110028;1261;22817;-82
2022/05/14 13:17:23;;;;;;;;;;;;;;;20.05;33.64;100596.79;109437;1265;21973;-81
2022/05/14 13:19:58;;;;;;;;;;;;;;;20.11;33.49;100599.55;109152;1271;23035;-82
2022/05/14 13:23:09;;;;;;;;;;;;;;;20.09;33.18;100598.84;109091;1271;21970;-81
2022/05/14 13:29:26;;;;;;;;;;;;;;;19.92;33.23;100604.35;109138;1271;22033;-79
2022/05/14 13:32:26;;;;;;;;;;;;;;;19.85;33.11;100603.11;108184;1283;21988;-77
2022/05/14 13:38:09;;;;;;;;;;;;;;;19.81;33.05;100595.28;107506;1288;22007;-80
2022/05/14 13:40:47;;;;;;;;;;;;;;;19.84;32.96;100596.77;107472;1289;21998;-81
2022/05/14 13:43:34;;;;;;;;;;;;;;;19.83;32.97;100599.30;107914;1286;21994;-80
2022/05/14 13:47:03;;;;;;;;;;;;;;;19.78;32.88;100598.52;108351;1279;22688;-80
2022/05/14 13:49:35;;;;;;;;;;;;;;;19.73;32.91;100595.31;108215;1280;21984;-81
2022/05/14 13:52:48;;;;;;;;;;;;;;;19.71;32.97;100591.08;108555;1276;22030;-81
2022/05/14 13:55:31;;;;;;;;;;;;;;;19.64;32.95;100592.42;108349;1280;21990;-80
2022/05/14 13:58:13;;;;;;;;;;;;;;;19.62;33.14;100594.05;108545;1276;22010;-81
2022/05/14 14:01:15;;;;;;;;;;;;;;;19.63;33.22;100590.66;108408;1276;23024;-82
2022/05/14 14:04:31;;;;;;;;;;;;;;;19.62;33.18;100590.50;108634;1276;21963;-80
2022/05/14 14:07:04;;;;;;;;;;;;;;;19.56;33.30;100592.33;108508;1276;21982;-82
2022/05/14 14:09:35;;;;;;;;;;;;;;;19.53;33.36;100591.89;108857;1270;23834;-82
2022/05/14 14:12:05;;;;;;;;;;;;;;;19.49;33.40;100589.83;108989;1270;21967;-81